EGGWLEGE

Guest
Details From EGGW - London Luton
To LEGE - Girona
Flight Number -
Tags generated
Created
Modified
Stats Distance 618 nm / 1,145 km
Max Altitude 35,000 ft / 10,668 m
Waypoints 17
Social Downloads 1
Likes 0
Share VATSIM

Download

Looking for another format? Having issues loading an existing format? Contact us
Advertisement - Login to hide

Notes

Basic altitude profile: - Ascent Rate: 2500ft/min - Ascent Speed: 250kts - Cruise Altitude: 35000ft - Cruise Speed: 420kts - Descent Rate: 1500ft/min - Descent Speed: 250kts Options: - Use NATs: yes - Use PACOTS: yes - Use low airways: no - Use high airways: yes

Route

EGGW SITET UN859 LOMRA LEGE

ID Type Via Altitude Latitude Longitude Leg Dist Tot Dist Heading (true) Name
O EGGW APT - 0 ft / 0 m 51.87463˚ -0.36845˚ - 0 nm - London Luton
SITET FIX - 35,000 ft / 10,668 m 50.10000˚ 0.00000˚ 107 nm 107 nm 172° / 173° -
ETRAT FIX UN859 (AWY-HI) 35,000 ft / 10,668 m 49.68333˚ 0.16333˚ 25 nm 133 nm 166° / 166° -
DVL VOR UN859 (AWY-HI) 35,000 ft / 10,668 m 49.31075˚ 0.31272˚ 23 nm 156 nm 165° / 165° DEAUVILLE SAINT GATIEN VOR
LGL VOR UN859 (AWY-HI) 35,000 ft / 10,668 m 48.79061˚ 0.53028˚ 32 nm 188 nm 165° / 165° L AIGLE VOR
SORAP FIX UN859 (AWY-HI) 35,000 ft / 10,668 m 48.52222˚ 0.63528˚ 16 nm 205 nm 165° / 166° -
BENAR FIX UN859 (AWY-HI) 35,000 ft / 10,668 m 48.25306˚ 0.74444˚ 16 nm 222 nm 165° / 165° -
VANAD FIX UN859 (AWY-HI) 35,000 ft / 10,668 m 47.83722˚ 0.90722˚ 25 nm 248 nm 165° / 165° -
AMB VOR UN859 (AWY-HI) 35,000 ft / 10,668 m 47.42892˚ 1.06444˚ 25 nm 273 nm 165° / 166° AMBOISE VOR-DME
BALAN FIX UN859 (AWY-HI) 34,000 ft / 10,363 m 46.51611˚ 1.03333˚ 54 nm 328 nm 181° / 181° -
BEBIX FIX UN859 (AWY-HI) 35,000 ft / 10,668 m 45.94917˚ 1.39972˚ 37 nm 365 nm 156° / 156° -
OBUBA FIX UN859 (AWY-HI) 35,000 ft / 10,668 m 45.57944˚ 1.47972˚ 22 nm 387 nm 171° / 171° -
TUGLI FIX UN859 (AWY-HI) 35,000 ft / 10,668 m 45.37722˚ 1.52444˚ 12 nm 400 nm 171° / 171° -
NARAK FIX UN859 (AWY-HI) 31,600 ft / 9,632 m 44.29528˚ 1.74889˚ 65 nm 465 nm 172° / 172° -
GAI VOR UN859 (AWY-HI) 27,100 ft / 8,260 m 43.95406˚ 1.82417˚ 20 nm 486 nm 171° / 171° GAILLAC-Castelneau de Montmira
LOMRA FIX UN859 (AWY-HI) 19,300 ft / 5,883 m 43.34417˚ 1.88306˚ 36 nm 523 nm 176° / 176° -
O LEGE APT - 0 ft / 0 m 41.90520˚ 2.76213˚ 94 nm 618 nm 155° / 156° Girona

Altitude Profile

Advertisement - Login to hide

Weather


0- 5 10 15 20 25 30 35+ Temperature / ° C

Clouds and Precipitation
Forecast for 2017-12-13 12:00 UTC. Updated an hour ago

Ground ~20,000 ft ~40,000 ft Winds

EGGW

Details ICAO EGGW (LTN)
Name London Luton
Region United Kingdom
Timezone Europe/London (UTC+0.0)
Stats Elevation 526 ft / 160 m (AMSL)
Location 51.874629° -0.368450°
Runways 1
Magnetic Variation 0.573° W

METAR

EGGW 131220Z 20009KT 8000 -RA OVC004TCU 05/05 Q0994

Decode

TAF

TAF EGGW 131103Z 1312/1412 22012KT 9999 SCT025 TEMPO 1312/1315 7000 SHRA BKN009 PROB30 TEMPO 1312/1315 26015G25KT 3000 +SHRA BKN004 TEMPO 1319/1321 28020G32KT 5000 SHRA -SHRASN BKN007 PROB30 TEMPO 1319/1321 2000 +SHRA SHRASN BKN004 PROB30 TEMPO 1321/1408 28020G32KT 9000 -SHRA BKN014

Decode

Departure Runways

ID Width Length Bearing (true) Bearing (mag) Surface Threshold Offset Overrun Length
08 151 ft / 46 m 7,066 ft / 2,154 m 74.35° 74.92° Asphalt 0 ft / 0 m 200 ft / 61 m
26 151 ft / 46 m 7,066 ft / 2,154 m 254.38° 254.95° Asphalt 272 ft / 83 m 0 ft / 0 m

LEGE

Details ICAO LEGE (GRO)
Name Girona
Region Spain
Timezone Europe/Madrid (UTC+1.0)
Stats Elevation 403 ft / 123 m (AMSL)
Location 41.905202° 2.762133°
Runways 1
Magnetic Variation 0.977° E

METAR

LEGE 131230Z VRB02KT 9999 FEW060 09/00 Q1020

Decode

TAF

TAF LEGE 131100Z 1312/1412 VRB04KT 9999 FEW010 TX13/1312Z TN03/1407Z= TAF LEZG 131100Z 1312/1412 25012KT 9999 SCT060 TX14/1313Z TN08/1407Z PROB30 TEMPO 1312/1320 VRB04KT PROB40 TEMPO 1312/1412 25017G27KT

Decode

Destination Runways

ID Width Length Bearing (true) Bearing (mag) Surface Threshold Offset Overrun Length
02 148 ft / 45 m 7,880 ft / 2,402 m 15.50° 14.52° Asphalt 0 ft / 0 m 210 ft / 64 m
20 148 ft / 45 m 7,880 ft / 2,402 m 195.50° 194.52° Asphalt 0 ft / 0 m 200 ft / 61 m

Approach Navaids

Runway Type Ident Frequency Range Bearing (true) Bearing (mag) Slope Elevation
20 Localiser IGN 109.90 MHz 18 nm / 33 km 195.60° 194.62° - 468 ft / 143 m (AMSL)
20 Glidescope IGN 109.90 MHz 10 nm / 19 km 195.50° 194.52° 3.00° 403 ft / 123 m (AMSL)
20 DME IGN 109.90 MHz 18 nm / 33 km - - - 463 ft / 141 m (AMSL)

Popular Alternatives